• Join FlightAware (Why Join?)
  • Login
  • US Flag 
08:47AM EDT


 

Airport Tracker/Info


-or-


 

Live Flight TrackerFlight Track Log ✈ N3756 ✈ 02-May-2012 ✈ KPDX - KATL

Flight Track Log - Related Links

Times and Time Zones

All times are in EDT time to prevent confusion due to time zone crossing. See the N3756 flight status page for this flight to view local times or setup timezone preferences in your user account.

Time Position Orientation Groundspeed Altitude Reporting Facility
EDT Latitude Longitude Course Direction KTS MPH feet Rate Location/Type
09:39AM 45.5997 -122.6067 293° West 169 194 900  Level Seattle Center
09:40AM 45.6261 -122.6972 301° West 234 269 2,900 2,400 Climbing Seattle Center
09:41AM 45.6619 -122.7833 238° Southwest 254 292 6,000 2,700 Climbing Seattle Center
09:42AM 45.6261 -122.8664 132° Southeast 281 323 9,300 2,040 Climbing Seattle Center
09:43AM 45.5683 -122.7736 122° Southeast 304 350 10,800 1,500 Climbing Seattle Center
09:44AM 45.5119 -122.6431 123° Southeast 354 407 12,400 1,860 Climbing Seattle Center
09:45AM 45.4508 -122.5081 123° Southeast 396 456 14,700 1,980 Climbing Seattle Center
09:46AM 45.3858 -122.3642 123° Southeast 422 486 16,500 1,800 Climbing Seattle Center
09:47AM 45.3178 -122.2144 122° Southeast 439 505 18,400 1,680 Climbing Seattle Center
09:48AM 45.2481 -122.0575 110° East 459 528 20,000 1,620 Climbing Seattle Center
09:49AM 45.1939 -121.8503 109° East 486 559 21,800 1,620 Climbing Seattle Center
09:50AM 45.1483 -121.6631 104° East 501 577 23,300 1,380 Climbing Seattle Center
09:51AM 45.1131 -121.4672 100° East 517 595 24,700 1,260 Climbing Seattle Center
09:52AM 45.0872 -121.2639 101° East 529 609 25,900 1,020 Climbing Seattle Center
09:53AM 45.0578 -121.0567 101° East 538 619 26,800 1,080 Climbing Seattle Center
09:54AM 45.0286 -120.8464 101° East 546 628 28,100 1,320 Climbing Seattle Center
09:55AM 44.9983 -120.6364 101° East 548 631 29,500 1,200 Climbing Seattle Center
09:56AM 44.9692 -120.4272 102° East 548 631 30,600 1,080 Climbing Seattle Center
09:57AM 44.9367 -120.2150 101° East 549 632 31,700 1,260 Climbing Seattle Center
09:58AM 44.9006 -119.9658 102° East 544 626 33,200 1,260 Climbing Seattle Center
09:59AM 44.8728 -119.7806 102° East 538 619 34,300 840 Climbing Seattle Center
10:00AM 44.8425 -119.5803 102° East 532 612 35,000 300 Climbing Seattle Center
10:01AM 44.8122 -119.3828 102° East 523 602 35,000  Level Seattle Center
10:02AM 44.7825 -119.1856 102° East 520 598 35,000  Level Seattle Center
10:04AM 44.7514 -118.9889 103° East 519 597 35,000  Level Seattle Center
10:05AM 44.7125 -118.7522 103° East 519 597 35,000  Level Seattle Center
10:06AM 44.6814 -118.5564 103° East 519 597 35,000  Level Seattle Center
10:07AM 44.6486 -118.3583 103° East 522 601 35,000  Level Seattle Center
10:08AM 44.6142 -118.1508 103° East 522 601 35,000  Level Seattle Center
10:08AM 44.5883 -117.9925 103° East 523 602 35,000  Level Salt Lake Center
10:10AM 44.5458 -117.7389 104° East 524 603 35,000  Level Seattle Center
10:11AM 44.5122 -117.5508 103° East 522 601 35,000  Level Seattle Center
10:12AM 44.4803 -117.3631 104° East 520 598 35,000  Level Salt Lake Center
10:13AM 44.4472 -117.1750 104° East 520 598 35,000  Level Salt Lake Center
10:14AM 44.4136 -116.9872 104° East 520 598 35,000  Level Salt Lake Center
10:15AM 44.3747 -116.7683 104° East 521 600 35,000  Level Salt Lake Center
10:16AM 44.3403 -116.5811 104° East 522 601 35,000  Level Salt Lake Center
10:17AM 44.3000 -116.3642 104° East 521 600 35,000  Level Salt Lake Center
10:18AM 44.2669 -116.1797 104° East 521 600 35,000  Level Salt Lake Center
10:19AM 44.2286 -115.9658 105° East 519 597 35,000  Level Salt Lake Center
10:20AM 44.1925 -115.7811 105° East 519 597 35,000  Level Salt Lake Center
10:21AM 44.1514 -115.5639 105° East 520 598 35,000  Level Salt Lake Center
10:22AM 44.1158 -115.3783 105° East 520 598 35,000  Level Salt Lake Center
10:23AM 44.0797 -115.1917 105° East 521 600 35,000  Level Salt Lake Center
10:24AM 44.0372 -114.9742 105° East 523 602 35,000  Level Salt Lake Center
10:25AM 44.0011 -114.7875 106° East 523 602 35,000  Level Salt Lake Center
10:26AM 43.9575 -114.5722 106° East 520 598 35,000  Level Salt Lake Center
10:27AM 43.9200 -114.3872 106° East 521 600 35,000  Level Salt Lake Center
10:28AM 43.8761 -114.1722 106° East 520 598 35,000  Level Salt Lake Center
10:29AM 43.8381 -113.9886 106° East 519 597 35,000  Level Salt Lake Center
10:30AM 43.7961 -113.7844 106° East 518 596 35,000  Level Salt Lake Center
10:31AM 43.7572 -113.6022 107° East 518 596 35,000  Level Salt Lake Center
10:32AM 43.7100 -113.3883 106° East 520 598 35,000  Level Salt Lake Center
10:33AM 43.6722 -113.2081 107° East 515 593 35,000  Level Salt Lake Center
10:34AM 43.6336 -113.0300 107° East 509 586 35,000  Level Salt Lake Center
10:35AM 43.5881 -112.8225 107° East 508 585 35,000  Level Salt Lake Center
10:36AM 43.5483 -112.6433 107° East 510 587 35,000  Level Salt Lake Center
10:37AM 43.5028 -112.4375 107° East 507 583 35,000  Level Salt Lake Center
10:38AM 43.4633 -112.2614 107° East 506 582 35,000  Level Salt Lake Center
10:39AM 43.4169 -112.0556 107° East 506 582 35,000  Level Salt Lake Center
10:40AM 43.3772 -111.8792 108° East 506 582 35,000  Level Salt Lake Center
10:41AM 43.3300 -111.6747 108° East 505 581 35,000  Level Salt Lake Center
10:42AM 43.2881 -111.4975 107° East 508 585 35,000  Level Salt Lake Center
10:43AM 43.2467 -111.3175 108° East 514 592 35,000  Level Salt Lake Center
10:44AM 43.1969 -111.1081 108° East 517 595 35,000  Level Salt Lake Center
10:45AM 43.1536 -110.9275 108° East 520 598 35,000  Level Salt Lake Center
10:46AM 43.1028 -110.7161 108° East 524 603 35,000  Level Salt Lake Center
10:47AM 43.0592 -110.5358 109° East 523 602 35,000  Level Salt Lake Center
10:49AM 43.0069 -110.3272 108° East 522 601 35,000  Level Salt Lake Center
10:50AM 42.9625 -110.1453 109° East 526 605 35,000  Level Salt Lake Center
10:51AM 42.9097 -109.9353 109° East 525 604 35,000  Level Salt Lake Center
10:52AM 42.8675 -109.7642 109° East 522 601 35,000  Level Salt Lake Center
10:53AM 42.8158 -109.5569 109° East 519 597 35,000  Level Salt Lake Center
10:54AM 42.7714 -109.3786 109° East 519 597 35,000  Level Salt Lake Center
10:55AM 42.7189 -109.1731 110° East 517 595 35,000  Level Salt Lake Center
10:56AM 42.6714 -108.9997 109° East 513 590 35,000  Level Salt Lake Center
10:58AM 42.5725 -108.6186 109° East 515 593 35,000  Level Salt Lake Center
10:59AM 42.5267 -108.4428 110° East 516 594 35,000  Level Salt Lake Center
11:00AM 42.4711 -108.2378 110° East 518 596 35,000  Level Salt Lake Center
11:01AM 42.4236 -108.0611 110° East 519 597 35,000  Level Salt Lake Center
11:02AM 42.3681 -107.8561 110° East 518 596 35,000  Level Salt Lake Center
11:03AM 42.3206 -107.6825 110° East 516 594 35,000  Level Salt Lake Center
11:04AM 42.2647 -107.4800 110° East 515 593 35,000  Level Salt Lake Center
11:05AM 42.2167 -107.3064 111° Southeast 516 594 35,000  Level Salt Lake Center
11:06AM 42.1600 -107.1058 111° Southeast 513 590 35,000  Level Salt Lake Center
11:07AM 42.1114 -106.9342 111° Southeast 513 590 35,000  Level Salt Lake Center
11:08AM 42.0547 -106.7331 110° East 514 592 35,000  Level Salt Lake Center
11:09AM 42.0244 -106.6189 112° Southeast 508 585 35,000  Level Denver Center
11:10AM 41.9703 -106.4372 112° Southeast 513 590 35,000  Level Denver Center
11:11AM 41.9181 -106.2614 111° Southeast 513 590 35,000  Level Denver Center
11:12AM 41.8717 -106.1028 109° East 513 590 35,000  Level Denver Center
11:13AM 41.8253 -105.9219 107° East 513 590 35,000  Level Denver Center
11:14AM 41.7783 -105.7217 108° East 507 583 35,000  Level Denver Center
11:15AM 41.7353 -105.5414 108° East 502 578 35,000  Level Denver Center
11:16AM 41.6964 -105.3808 108° East 507 583 35,000  Level Denver Center
11:17AM 41.6483 -105.1814 109° East 502 578 35,000  Level Denver Center
11:18AM 41.6025 -105.0019 107° East 502 578 35,000  Level Denver Center
11:19AM 41.5625 -104.8222 108° East 502 578 35,000  Level Denver Center
11:20AM 41.5228 -104.6625 108° East 502 578 35,000  Level Denver Center
11:21AM 41.4736 -104.4669 109° East 502 578 35,000  Level Denver Center
11:22AM 41.4289 -104.2939 107° East 502 578 35,000  Level Denver Center
11:23AM 41.3925 -104.1347 110° East 502 578 35,000  Level Denver Center
11:24AM 41.3450 -103.9592 108° East 502 578 35,000  Level Denver Center
11:25AM 41.2967 -103.7647 109° East 502 578 35,000  Level Denver Center
11:26AM 41.2531 -103.5953 109° East 502 578 35,000  Level Denver Center
11:27AM 41.2114 -103.4369 110° East 496 571 35,100 480 Climbing Denver Center
11:28AM 41.1606 -103.2489 108° East 496 571 36,000 780 Climbing Denver Center
11:29AM 41.1158 -103.0719 110° East 496 571 36,700 480 Climbing Denver Center
11:30AM 41.0692 -102.9036 117° Southeast 496 571 37,000 120 Climbing Denver Center
11:31AM 41.0122 -102.7581 117° Southeast 496 571 37,000  Level Denver Center
11:32AM 40.9439 -102.5803 115° Southeast 496 571 37,000  Level Denver Center
11:33AM 40.8883 -102.4214 117° Southeast 490 564 37,000  Level Denver Center
11:34AM 40.8311 -102.2739 117° Southeast 485 558 37,000  Level Denver Center
11:35AM 40.7708 -102.1158 117° Southeast 485 558 37,000  Level Denver Center
11:36AM 40.7036 -101.9394 117° Southeast 485 558 37,000  Level Denver Center
11:37AM 40.6408 -101.7794 116° Southeast 485 558 37,000  Level Denver Center
11:38AM 40.5869 -101.6356 117° Southeast 480 552 37,000  Level Denver Center
11:39AM 40.5189 -101.4572 118° Southeast 485 558 37,000  Level Denver Center
11:40AM 40.4578 -101.3033 118° Southeast 480 552 37,000  Level Denver Center
11:41AM 40.3942 -101.1447 116° Southeast 485 558 37,000  Level Denver Center
11:42AM 40.3397 -101.0017 117° Southeast 480 552 37,000  Level Denver Center
11:43AM 40.2728 -100.8303 118° Southeast 480 552 37,000  Level Denver Center
11:44AM 40.2111 -100.6775 117° Southeast 480 552 37,000  Level Denver Center
11:45AM 40.1558 -100.5353 118° Southeast 480 552 37,000  Level Denver Center
11:46AM 40.0864 -100.3650 118° Southeast 480 552 37,000  Level Denver Center
11:47AM 40.0264 -100.2183 119° Southeast 470 541 37,000  Level Denver Center
11:48AM 39.9592 -100.0592 118° Southeast 470 541 37,000  Level Denver Center
11:49AM 39.8986 -99.9106 118° Southeast 470 541 37,000  Level Denver Center
11:50AM 39.8353 -99.7542 119° Southeast 480 552 37,000  Level Denver Center
11:51AM 39.7719 -99.6036 119° Southeast 480 552 37,000  Level Denver Center
11:53AM 39.6683 -99.3564 119° Southeast 495 570 37,000  Level Kansas City Center
11:54AM 39.6017 -99.1983 118° Southeast 490 564 37,000  Level Kansas City Center
11:55AM 39.5389 -99.0461 119° Southeast 490 564 37,000  Level Kansas City Center
11:56AM 39.4736 -98.8942 116° Southeast 490 564 37,000  Level Kansas City Center
11:57AM 39.4089 -98.7264 120° Southeast 484 557 37,000  Level Kansas City Center
11:58AM 39.3411 -98.5747 119° Southeast 484 557 37,000  Level Kansas City Center
11:59AM 39.2772 -98.4264 118° Southeast 479 551 37,000  Level Kansas City Center
12:00PM 39.2211 -98.2919 120° Southeast 479 551 37,000  Level Kansas City Center
12:01PM 39.1547 -98.1439 118° Southeast 474 545 37,000  Level Kansas City Center
12:02PM 39.0925 -97.9964 120° Southeast 474 545 37,000  Level Kansas City Center
12:03PM 39.0278 -97.8517 120° Southeast 474 545 37,000  Level Kansas City Center
12:04PM 38.9572 -97.6936 120° Southeast 474 545 37,000  Level Kansas City Center
12:05PM 38.8942 -97.5519 120° Southeast 474 545 37,000  Level Kansas City Center
12:06PM 38.8289 -97.4081 121° Southeast 469 540 37,000  Level Kansas City Center
12:07PM 38.7694 -97.2806 120° Southeast 469 540 37,000  Level Kansas City Center
12:08PM 38.6978 -97.1236 121° Southeast 464 534 37,000  Level Kansas City Center
12:09PM 38.6319 -96.9831 121° Southeast 464 534 37,000  Level Kansas City Center
12:10PM 38.5639 -96.8400 120° Southeast 459 528 37,000  Level Kansas City Center
12:11PM 38.5000 -96.6975 122° Southeast 459 528 37,000  Level Kansas City Center
12:12PM 38.4336 -96.5603 121° Southeast 459 528 37,000  Level Kansas City Center
12:13PM 38.3753 -96.4342 120° Southeast 464 534 37,000  Level Kansas City Center
12:14PM 38.3106 -96.2922 122° Southeast 458 527 37,000  Level Kansas City Center
12:15PM 38.2356 -96.1422 121° Southeast 463 533 37,000  Level Kansas City Center
12:16PM 38.1686 -96.0008 122° Southeast 458 527 37,000  Level Kansas City Center
12:17PM 38.1036 -95.8678 122° Southeast 458 527 37,000  Level Kansas City Center
12:18PM 38.0422 -95.7428 121° Southeast 460 529 37,000  Level Kansas City Center
12:19PM 37.9667 -95.5861 119° Southeast 465 535 37,000  Level Kansas City Center
12:20PM 37.9053 -95.4483 121° Southeast 465 535 37,000  Level Kansas City Center
12:21PM 37.8394 -95.3081 122° Southeast 460 529 37,000  Level Kansas City Center
12:22PM 37.7736 -95.1758 126° Southeast 453 521 37,000  Level Kansas City Center
12:23PM 37.7014 -95.0494 118° Southeast 453 521 37,000  Level Kansas City Center
12:24PM 37.6392 -94.9047 122° Southeast 453 521 37,000  Level Kansas City Center
12:25PM 37.5792 -94.7839 122° Southeast 460 529 37,000  Level Kansas City Center
12:26PM 37.5106 -94.6475 122° Southeast 460 529 37,000  Level Kansas City Center
12:27PM 37.4439 -94.5139 122° Southeast 460 529 37,000  Level Kansas City Center
12:28PM 37.3769 -94.3806 123° Southeast 460 529 37,000  Level Kansas City Center
12:29PM 37.3081 -94.2475 122° Southeast 460 529 37,000  Level Kansas City Center
12:30PM 37.2431 -94.1172 124° Southeast 460 529 37,000  Level Kansas City Center
12:31PM 37.1672 -93.9769 121° Southeast 454 522 37,000  Level Kansas City Center
12:32PM 37.1042 -93.8472 124° Southeast 470 541 37,000  Level Kansas City Center
12:33PM 37.0303 -93.7100 122° Southeast 464 534 37,000  Level Kansas City Center
12:34PM 36.9217 -93.4969 123° Southeast 453 521 37,000  Level Memphis Center
12:35PM 36.8519 -93.3619 122° Southeast 453 521 37,000  Level Memphis Center
12:36PM 36.7844 -93.2272 123° Southeast 453 521 37,000  Level Memphis Center
12:37PM 36.7144 -93.0953 123° Southeast 453 521 37,000  Level Memphis Center
12:38PM 36.6464 -92.9664 123° Southeast 453 521 37,000  Level Memphis Center
12:39PM 36.5781 -92.8350 123° Southeast 448 516 37,000  Level Memphis Center
12:40PM 36.5097 -92.7064 122° Southeast 448 516 37,000  Level Memphis Center
12:41PM 36.4414 -92.5728 124° Southeast 448 516 37,000  Level Memphis Center
12:42PM 36.3725 -92.4447 123° Southeast 453 521 37,000  Level Memphis Center
12:43PM 36.3019 -92.3117 124° Southeast 453 521 37,000  Level Memphis Center
12:44PM 36.2328 -92.1839 126° Southeast 453 521 37,000  Level Memphis Center
12:45PM 36.1494 -92.0406 122° Southeast 453 521 37,000  Level Memphis Center
12:46PM 36.0844 -91.9133 125° Southeast 453 521 37,000  Level Memphis Center
12:47PM 36.0089 -91.7811 124° Southeast 459 528 37,000  Level Memphis Center
12:48PM 35.9514 -91.6775 121° Southeast 454 522 37,000  Level Memphis Center
12:49PM 35.8819 -91.5356 126° Southeast 454 522 37,000  Level Memphis Center
12:50PM 35.8019 -91.3989 123° Southeast 448 516 37,000  Level Memphis Center
12:51PM 35.7361 -91.2725 123° Southeast 448 516 37,000  Level Memphis Center
12:52PM 35.6764 -91.1594 120° Southeast 443 510 37,000  Level Memphis Center
12:53PM 35.6147 -91.0261 106° East 443 510 37,000  Level Memphis Center
12:54PM 35.5800 -90.8803 108° East 443 510 37,000 -300 Level Memphis Center
12:55PM 35.5408 -90.7347 109° East 443 510 36,400 -780 Descending Memphis Center
12:56PM 35.4994 -90.5839 107° East 460 529 35,500 -720 Descending Memphis Center
12:57PM 35.4619 -90.4361 108° East 460 529 35,000 -300 Descending Memphis Center
12:58PM 35.4183 -90.2731 108° East 460 529 35,000  Level Memphis Center
12:59PM 35.3783 -90.1253 107° East 460 529 35,000  Level Memphis Center
01:00PM 35.3406 -89.9778 108° East 460 529 35,000  Level Memphis Center
01:01PM 35.3003 -89.8306 108° East 460 529 35,000  Level Memphis Center
01:02PM 35.2600 -89.6806 108° East 460 529 35,000  Level Memphis Center
01:03PM 35.2194 -89.5286 109° East 460 529 35,000  Level Memphis Center
01:04PM 35.1808 -89.3942 110° East 460 529 35,000  Level Memphis Center
01:05PM 35.1381 -89.2475 109° East 462 532 35,000  Level Memphis Center
01:06PM 35.0969 -89.0983 109° East 462 532 35,000  Level Memphis Center
01:07PM 35.0556 -88.9492 109° East 457 526 35,000  Level Memphis Center
01:08PM 35.0100 -88.7903 109° East 457 526 35,000 -120 Level Memphis Center
01:09PM 34.9683 -88.6467 108° East 457 526 34,800 -600 Descending Memphis Center
01:10PM 34.9286 -88.5006 110° East 457 526 33,800 -900 Descending Memphis Center
01:11PM 34.8869 -88.3622 109° East 443 510 33,000 -420 Descending Memphis Center
01:12PM 34.8447 -88.2139 108° East 448 516 33,000  Level Memphis Center
01:13PM 34.8025 -88.0606 109° East 466 536 33,000  Level Memphis Center
01:14PM 34.7622 -87.9150 111° Southeast 461 531 33,000  Level Memphis Center
01:15PM 34.7153 -87.7700 108° East 461 531 33,000  Level Memphis Center
01:16PM 34.6744 -87.6197 111° Southeast 461 531 33,000  Level Memphis Center
01:17PM 34.6297 -87.4797 103° East 461 531 33,000  Level Memphis Center
01:20PM 34.5539 -87.0856 103° East 454 522 33,000  Level Atlanta Center
01:21PM 34.5242 -86.9356 103° East 454 522 33,000  Level Atlanta Center
01:22PM 34.4981 -86.7986 103° East 454 522 33,000 -120 Level Atlanta Center
01:23PM 34.4700 -86.6492 104° East 454 522 32,800 -600 Descending Atlanta Center
01:24PM 34.4397 -86.4969 103° East 454 522 31,800 -960 Descending Atlanta Center
01:25PM 34.4114 -86.3475 103° East 454 522 30,900 -960 Descending Atlanta Center
01:26PM 34.3808 -86.1908 104° East 461 531 29,900 -1,020 Descending Atlanta Center
01:27PM 34.3478 -86.0339 108° East 466 536 28,900 -1,080 Descending Atlanta Center
01:28PM 34.3044 -85.8694 106° East 471 542 27,800 -1,620 Descending Atlanta Center
01:29PM 34.2731 -85.7381 107° East 464 534 25,700 -2,460 Descending Atlanta Center
01:30PM 34.2353 -85.5917 107° East 458 527 22,900 -2,460 Descending Atlanta Center
01:31PM 34.1994 -85.4503 107° East 445 512 20,800 -2,340 Descending Atlanta Center
01:32PM 34.1614 -85.3042 108° East 432 497 18,300 -2,460 Descending Atlanta Center
01:33PM 34.1272 -85.1756 106° East 408 470 15,900 -2,100 Descending Atlanta Center
01:34PM 34.0969 -85.0522 127° Southeast 393 452 14,200 -1,020 Descending Atlanta Center
01:35PM 34.0350 -84.9536 134° Southeast 373 429 13,900 -660 Descending Atlanta Center
01:36PM 33.9647 -84.8653 134° Southeast 367 422 12,900 -960 Descending Atlanta Center
01:37PM 33.8944 -84.7769 134° Southeast 362 417 12,000 -480 Descending Atlanta Center
01:38PM 33.8258 -84.6914 133° Southeast 357 411 12,000  Level Atlanta Center
01:39PM 33.7617 -84.6086 116° Southeast 350 403 12,000 -180 Level Atlanta Center
01:40PM 33.7286 -84.5283 92° East 281 323 11,700 -1,200 Descending Atlanta Center
01:41PM 33.7267 -84.4458 86° East 252 290 9,600 -2,100 Descending Atlanta Center
01:42PM 33.7311 -84.3661 88° East 241 277 7,500 -2,040 Descending Atlanta Center
01:43PM 33.7333 -84.2667 164° South 228 262 4,800 -1,860 Descending Atlanta TRACON
01:44PM 33.6833 -84.2500 239° Southwest 233 268 3,300 -1,200 Descending Atlanta TRACON
01:45PM 33.6500 -84.3167 270° West 196 226 2,600 -900 Descending Atlanta TRACON
01:46PM 33.6500 -84.3667 270° West 169 194 1,600 -1,020 Descending Atlanta TRACON